createdAt,value
2024-02-19T00:00:25.267Z,96669.00
2024-02-19T00:01:25.423Z,96672.00
2024-02-19T00:02:25.399Z,96675.00
2024-02-19T00:03:25.554Z,96672.00
2024-02-19T00:04:25.562Z,96674.00
2024-02-19T00:05:25.587Z,96673.00
2024-02-19T00:06:25.609Z,96672.00
2024-02-19T00:07:25.783Z,96667.00
2024-02-19T00:08:25.734Z,96667.00
2024-02-19T00:09:25.804Z,96667.00
2024-02-19T00:10:25.886Z,96667.00
2024-02-19T00:11:25.998Z,96670.00
2024-02-19T00:12:26.146Z,96671.00
2024-02-19T00:13:26.119Z,96669.00
2024-02-19T00:14:26.112Z,96665.00
2024-02-19T00:15:26.171Z,96663.00
2024-02-19T00:16:26.237Z,96661.00
2024-02-19T00:17:26.320Z,96661.00
2024-02-19T00:18:26.436Z,96660.00
2024-02-19T00:19:26.601Z,96658.00
2024-02-19T00:20:26.499Z,96659.00
2024-02-19T00:21:26.571Z,96658.00
2024-02-19T00:22:26.669Z,96660.00
2024-02-19T00:23:26.709Z,96657.00
2024-02-19T00:24:26.775Z,96661.00
2024-02-19T00:25:26.868Z,96658.00
2024-02-19T00:26:26.924Z,96661.00
2024-02-19T00:27:32.032Z,96661.00
2024-02-19T00:28:26.992Z,96660.00
2024-02-19T00:29:27.014Z,96662.00
2024-02-19T00:30:27.005Z,96662.00
2024-02-19T00:31:27.010Z,96663.00
2024-02-19T00:32:27.045Z,96665.00
2024-02-19T00:33:27.156Z,96666.00
2024-02-19T00:34:27.057Z,96666.00
2024-02-19T00:35:27.114Z,96666.00
2024-02-19T00:36:27.180Z,96669.00
2024-02-19T00:37:27.243Z,96669.00
2024-02-19T00:38:27.297Z,96671.00
2024-02-19T00:39:27.383Z,96671.00
2024-02-19T00:40:27.488Z,96670.00
2024-02-19T00:41:27.517Z,96668.00
2024-02-19T00:42:27.606Z,96668.00
2024-02-19T00:43:27.649Z,96671.00
2024-02-19T00:44:27.711Z,96673.00
2024-02-19T00:45:27.800Z,96672.00
2024-02-19T00:46:27.848Z,96671.00
2024-02-19T00:47:27.928Z,96671.00
2024-02-19T00:48:27.964Z,96669.00
2024-02-19T00:49:28.148Z,96673.00
2024-02-19T00:50:28.070Z,96673.00
2024-02-19T00:51:28.148Z,96675.00
2024-02-19T00:52:28.187Z,96675.00
2024-02-19T00:53:28.243Z,96675.00
2024-02-19T00:54:28.287Z,96674.00
2024-02-19T00:55:28.370Z,96673.00
2024-02-19T00:56:28.415Z,96676.00
2024-02-19T00:57:28.483Z,96678.00
2024-02-19T00:58:28.519Z,96678.00
2024-02-19T00:59:28.551Z,96679.00
2024-02-19T01:00:28.554Z,96679.00
2024-02-19T01:01:28.646Z,96681.00
2024-02-19T01:02:28.589Z,96680.00
2024-02-19T01:03:28.643Z,96682.00
2024-02-19T01:04:28.701Z,96683.00
2024-02-19T01:05:28.681Z,96688.00
2024-02-19T01:06:28.589Z,96692.00
2024-02-19T01:07:28.681Z,96692.00
2024-02-19T01:08:28.613Z,96690.00
2024-02-19T01:09:28.634Z,96694.00
2024-02-19T01:10:28.641Z,96694.00
2024-02-19T01:11:28.689Z,96697.00
2024-02-19T01:12:34.346Z,96699.00
2024-02-19T01:13:28.671Z,96701.00
2024-02-19T01:14:28.639Z,96704.00
2024-02-19T01:15:28.652Z,96707.00
2024-02-19T01:16:28.656Z,96707.00
2024-02-19T01:17:28.698Z,96712.00
2024-02-19T01:18:28.686Z,96714.00
2024-02-19T01:19:28.728Z,96714.00
2024-02-19T01:20:28.682Z,96715.00
2024-02-19T01:21:28.648Z,96712.00
2024-02-19T01:22:28.662Z,96712.00
2024-02-19T01:23:28.665Z,96711.00
2024-02-19T01:24:28.659Z,96710.00
2024-02-19T01:25:28.651Z,96709.00
2024-02-19T01:26:28.647Z,96707.00
2024-02-19T01:27:28.656Z,96709.00
2024-02-19T01:28:28.686Z,96710.00
2024-02-19T01:29:28.672Z,96710.00
2024-02-19T01:30:28.649Z,96709.00
2024-02-19T01:31:28.682Z,96709.00
2024-02-19T01:32:28.708Z,96707.00
2024-02-19T01:33:28.710Z,96709.00
2024-02-19T01:34:28.762Z,96708.00
2024-02-19T01:35:28.676Z,96706.00
2024-02-19T01:36:28.652Z,96706.00
2024-02-19T01:37:35.044Z,96702.00
2024-02-19T01:38:28.657Z,96704.00
2024-02-19T01:39:28.670Z,96704.00
2024-02-19T01:40:28.715Z,96704.00
2024-02-19T01:41:28.675Z,96707.00
2024-02-19T01:42:28.653Z,96707.00
2024-02-19T01:43:28.682Z,96709.00
2024-02-19T01:44:28.674Z,96708.00
2024-02-19T01:45:28.673Z,96707.00
2024-02-19T01:46:28.690Z,96707.00
2024-02-19T01:47:28.690Z,96705.00
2024-02-19T01:48:28.705Z,96703.00
2024-02-19T01:49:28.695Z,96705.00
2024-02-19T01:50:28.677Z,96706.00
2024-02-19T01:51:28.687Z,96704.00
2024-02-19T01:52:28.685Z,96705.00
2024-02-19T01:53:28.704Z,96705.00
2024-02-19T01:54:28.693Z,96707.00
2024-02-19T01:55:28.742Z,96709.00
2024-02-19T01:56:28.687Z,96713.00
2024-02-19T01:57:28.693Z,96714.00
2024-02-19T01:58:28.702Z,96716.00
2024-02-19T01:59:28.710Z,96715.00
2024-02-19T02:00:28.725Z,96716.00
2024-02-19T02:01:28.769Z,96721.00
2024-02-19T02:02:28.727Z,96718.00
2024-02-19T02:03:28.700Z,96718.00
2024-02-19T02:04:28.724Z,96720.00
2024-02-19T02:05:28.709Z,96725.00
2024-02-19T02:06:28.731Z,96725.00
2024-02-19T02:07:28.701Z,96726.00
2024-02-19T02:08:28.701Z,96724.00
2024-02-19T02:09:28.710Z,96723.00
2024-02-19T02:10:28.743Z,96722.00
2024-02-19T02:11:28.777Z,96722.00
2024-02-19T02:12:28.780Z,96722.00
2024-02-19T02:13:28.868Z,96725.00
2024-02-19T02:14:28.896Z,96722.00
2024-02-19T02:15:28.958Z,96725.00
2024-02-19T02:16:29.020Z,96728.00
2024-02-19T02:17:29.124Z,96729.00
2024-02-19T02:18:29.200Z,96732.00
2024-02-19T02:19:29.303Z,96727.00
2024-02-19T02:20:29.231Z,96726.00
2024-02-19T02:21:29.273Z,96723.00
2024-02-19T02:22:29.315Z,96723.00
2024-02-19T02:23:29.369Z,96721.00
2024-02-19T02:24:30.411Z,96722.00
2024-02-19T02:25:29.521Z,96724.00
2024-02-19T02:26:29.495Z,96727.00
2024-02-19T02:27:29.576Z,96727.00
2024-02-19T02:28:29.575Z,96722.00
2024-02-19T02:29:29.630Z,96717.00
2024-02-19T02:30:29.654Z,96712.00
2024-02-19T02:31:29.710Z,96712.00
2024-02-19T02:32:29.796Z,96704.00
2024-02-19T02:33:29.877Z,96705.00
2024-02-19T02:34:29.916Z,96704.00
2024-02-19T02:35:29.881Z,96704.00
2024-02-19T02:36:29.921Z,96703.00
2024-02-19T02:37:29.978Z,96701.00
2024-02-19T02:38:30.034Z,96698.00
2024-02-19T02:39:30.069Z,96697.00
2024-02-19T02:40:30.112Z,96694.00
2024-02-19T02:41:30.146Z,96692.00
2024-02-19T02:42:30.187Z,96691.00
2024-02-19T02:43:30.248Z,96687.00
2024-02-19T02:44:30.302Z,96688.00
2024-02-19T02:45:30.358Z,96690.00
2024-02-19T02:46:30.431Z,96688.00
2024-02-19T02:47:30.467Z,96691.00
2024-02-19T02:48:30.579Z,96690.00
2024-02-19T02:49:30.667Z,96690.00
2024-02-19T02:50:30.603Z,96688.00
2024-02-19T02:51:30.658Z,96686.00
2024-02-19T02:52:30.707Z,96683.00
2024-02-19T02:53:30.770Z,96679.00
2024-02-19T02:54:30.795Z,96674.00
2024-02-19T02:55:30.859Z,96668.00
2024-02-19T02:56:30.913Z,96663.00
2024-02-19T02:57:30.956Z,96661.00
2024-02-19T02:58:31.012Z,96660.00
2024-02-19T02:59:31.076Z,96659.00
2024-02-19T03:00:31.106Z,96660.00
2024-02-19T03:01:31.398Z,96661.00
2024-02-19T03:02:31.215Z,96661.00
2024-02-19T03:03:31.300Z,96662.00
2024-02-19T03:04:31.449Z,96664.00
2024-02-19T03:05:31.368Z,96666.00
2024-02-19T03:06:31.453Z,96666.00
2024-02-19T03:07:31.569Z,96669.00
2024-02-19T03:08:31.563Z,96669.00
2024-02-19T03:09:31.574Z,96672.00
2024-02-19T03:10:31.643Z,96673.00
2024-02-19T03:11:31.743Z,96676.00
2024-02-19T03:12:31.737Z,96679.00
2024-02-19T03:13:31.797Z,96680.00
2024-02-19T03:14:31.851Z,96681.00
2024-02-19T03:15:31.892Z,96685.00
2024-02-19T03:16:31.941Z,96684.00
2024-02-19T03:17:32.036Z,96685.00
2024-02-19T03:18:32.136Z,96686.00
2024-02-19T03:19:32.158Z,96686.00
2024-02-19T03:20:32.235Z,96688.00
2024-02-19T03:21:32.194Z,96688.00
2024-02-19T03:22:32.250Z,96687.00
2024-02-19T03:23:32.314Z,96689.00
2024-02-19T03:24:32.363Z,96686.00
2024-02-19T03:25:32.401Z,96685.00
2024-02-19T03:26:38.141Z,96683.00
2024-02-19T03:27:33.465Z,96683.00
2024-02-19T03:28:32.461Z,96681.00
2024-02-19T03:29:32.464Z,96684.00
2024-02-19T03:30:32.471Z,96681.00
2024-02-19T03:31:32.479Z,96682.00
2024-02-19T03:32:32.521Z,96681.00
2024-02-19T03:33:32.514Z,96680.00
2024-02-19T03:34:32.528Z,96681.00
2024-02-19T03:35:32.469Z,96681.00
2024-02-19T03:36:32.478Z,96681.00
2024-02-19T03:37:32.541Z,96683.00
2024-02-19T03:38:32.552Z,96686.00
2024-02-19T03:39:32.624Z,96690.00
2024-02-19T03:40:32.669Z,96691.00
2024-02-19T03:41:32.697Z,96692.00
2024-02-19T03:42:32.760Z,96692.00
2024-02-19T03:43:32.804Z,96693.00
2024-02-19T03:44:32.871Z,96691.00
2024-02-19T03:45:32.912Z,96692.00
2024-02-19T03:46:32.965Z,96695.00
2024-02-19T03:47:33.019Z,96694.00
2024-02-19T03:48:33.139Z,96695.00
2024-02-19T03:49:33.207Z,96692.00
2024-02-19T03:50:33.179Z,96694.00
2024-02-19T03:51:33.232Z,96696.00
2024-02-19T03:52:33.281Z,96698.00
2024-02-19T03:53:33.352Z,96697.00
2024-02-19T03:54:33.440Z,96699.00
2024-02-19T03:55:33.506Z,96699.00
2024-02-19T03:56:33.502Z,96696.00
2024-02-19T03:57:33.531Z,96697.00
2024-02-19T03:58:33.577Z,96699.00
2024-02-19T03:59:33.617Z,96703.00
2024-02-19T04:00:33.665Z,96704.00
2024-02-19T04:01:33.867Z,96707.00
2024-02-19T04:02:33.757Z,96707.00
2024-02-19T04:03:33.848Z,96709.00
2024-02-19T04:04:33.943Z,96715.00
2024-02-19T04:05:33.865Z,96714.00
2024-02-19T04:06:33.942Z,96713.00
2024-02-19T04:07:34.000Z,96712.00
2024-02-19T04:08:34.027Z,96710.00
2024-02-19T04:09:34.017Z,96707.00
2024-02-19T04:10:34.078Z,96712.00
2024-02-19T04:11:34.160Z,96712.00
2024-02-19T04:12:34.187Z,96713.00
2024-02-19T04:13:34.232Z,96713.00
2024-02-19T04:14:34.276Z,96712.00
2024-02-19T04:15:34.339Z,96712.00
2024-02-19T04:16:34.354Z,96711.00
2024-02-19T04:17:34.479Z,96713.00
2024-02-19T04:18:34.500Z,96714.00
2024-02-19T04:19:34.540Z,96719.00
2024-02-19T04:20:34.530Z,96721.00
2024-02-19T04:21:34.587Z,96721.00
2024-02-19T04:22:34.642Z,96722.00
2024-02-19T04:23:34.667Z,96721.00
2024-02-19T04:24:34.806Z,96718.00
2024-02-19T04:25:34.753Z,96718.00
2024-02-19T04:26:34.840Z,96720.00
2024-02-19T04:27:34.862Z,96723.00
2024-02-19T04:28:34.909Z,96726.00
2024-02-19T04:29:34.958Z,96728.00
2024-02-19T04:30:35.018Z,96730.00
2024-02-19T04:31:35.070Z,96731.00
2024-02-19T04:32:35.180Z,96735.00
2024-02-19T04:33:35.251Z,96735.00
2024-02-19T04:34:39.336Z,96736.00
2024-02-19T04:35:36.229Z,96735.00
2024-02-19T04:36:35.218Z,96735.00
2024-02-19T04:37:35.217Z,96737.00
2024-02-19T04:38:35.233Z,96734.00
2024-02-19T04:39:35.223Z,96737.00
2024-02-19T04:40:35.229Z,96741.00
2024-02-19T04:41:35.243Z,96741.00
2024-02-19T04:42:35.241Z,96746.00
2024-02-19T04:43:35.246Z,96745.00
2024-02-19T04:44:35.267Z,96743.00
2024-02-19T04:45:35.287Z,96741.00
2024-02-19T04:46:42.608Z,96740.00
2024-02-19T04:47:42.670Z,96740.00
2024-02-19T04:48:42.706Z,96742.00
2024-02-19T04:49:42.672Z,96742.00
2024-02-19T04:50:42.594Z,96744.00
2024-02-19T04:51:42.614Z,96742.00
2024-02-19T04:52:42.643Z,96742.00
2024-02-19T04:53:42.627Z,96741.00
2024-02-19T04:54:42.712Z,96737.00
2024-02-19T04:55:42.603Z,96736.00
2024-02-19T04:56:42.625Z,96734.00
2024-02-19T04:57:42.638Z,96736.00
2024-02-19T04:58:42.608Z,96736.00
2024-02-19T04:59:42.622Z,96735.00
2024-02-19T05:00:42.725Z,96735.00
2024-02-19T05:01:42.661Z,96737.00
2024-02-19T05:02:42.602Z,96736.00
2024-02-19T05:03:42.656Z,96734.00
2024-02-19T05:04:42.753Z,96732.00
2024-02-19T05:05:42.689Z,96732.00
2024-02-19T05:06:42.684Z,96732.00
2024-02-19T05:07:42.611Z,96730.00
2024-02-19T05:08:42.617Z,96730.00
2024-02-19T05:09:42.636Z,96728.00
2024-02-19T05:10:42.682Z,96725.00
2024-02-19T05:11:42.711Z,96726.00
2024-02-19T05:12:42.620Z,96730.00
2024-02-19T05:13:42.622Z,96733.00
2024-02-19T05:14:42.630Z,96736.00
2024-02-19T05:15:42.642Z,96737.00
2024-02-19T05:16:42.624Z,96740.00
2024-02-19T05:17:42.684Z,96738.00
2024-02-19T05:18:42.784Z,96739.00
2024-02-19T05:19:43.141Z,96742.00
2024-02-19T05:20:42.827Z,96743.00
2024-02-19T05:21:42.934Z,96744.00
2024-02-19T05:22:42.928Z,96747.00
2024-02-19T05:23:43.021Z,96746.00
2024-02-19T05:24:43.121Z,96745.00
2024-02-19T05:25:43.135Z,96747.00
2024-02-19T05:26:43.193Z,96747.00
2024-02-19T05:27:43.357Z,96745.00
2024-02-19T05:28:43.345Z,96745.00
2024-02-19T05:29:43.419Z,96743.00
2024-02-19T05:30:43.529Z,96744.00
2024-02-19T05:31:43.546Z,96745.00
2024-02-19T05:32:43.608Z,96746.00
2024-02-19T05:33:43.753Z,96749.00
2024-02-19T05:34:43.766Z,96746.00
2024-02-19T05:35:43.944Z,96743.00
2024-02-19T05:36:43.907Z,96738.00
2024-02-19T05:37:43.956Z,96736.00
2024-02-19T05:38:44.029Z,96735.00
2024-02-19T05:39:44.166Z,96733.00
2024-02-19T05:40:44.160Z,96730.00
2024-02-19T05:41:44.260Z,96732.00
2024-02-19T05:42:44.363Z,96730.00
2024-02-19T05:43:44.377Z,96733.00
2024-02-19T05:44:44.461Z,96735.00
2024-02-19T05:45:44.589Z,96735.00
2024-02-19T05:46:44.704Z,96734.00
2024-02-19T05:47:44.839Z,96735.00
2024-02-19T05:48:44.782Z,96736.00
2024-02-19T05:49:46.344Z,96736.00
2024-02-19T05:50:44.830Z,96734.00
2024-02-19T05:51:44.918Z,96737.00
2024-02-19T05:52:44.942Z,96733.00
2024-02-19T05:53:45.079Z,96736.00
2024-02-19T05:54:45.147Z,96735.00
2024-02-19T05:55:45.145Z,96740.00
2024-02-19T05:56:45.200Z,96738.00
2024-02-19T05:57:45.288Z,96740.00
2024-02-19T05:58:45.326Z,96741.00
2024-02-19T05:59:45.399Z,96740.00
2024-02-19T06:00:45.524Z,96735.00
2024-02-19T06:01:45.732Z,96737.00
2024-02-19T06:02:45.690Z,96740.00
2024-02-19T06:03:45.672Z,96743.00
2024-02-19T06:04:45.785Z,96747.00
2024-02-19T06:05:45.797Z,96747.00
2024-02-19T06:06:45.914Z,96747.00
2024-02-19T06:07:45.905Z,96747.00
2024-02-19T06:08:45.931Z,96745.00
2024-02-19T06:09:46.085Z,96742.00
2024-02-19T06:10:46.094Z,96745.00
2024-02-19T06:11:46.176Z,96745.00
2024-02-19T06:12:46.269Z,96749.00
2024-02-19T06:13:46.307Z,96753.00
2024-02-19T06:14:46.365Z,96750.00
2024-02-19T06:15:46.564Z,96749.00
2024-02-19T06:16:46.522Z,96748.00
2024-02-19T06:17:46.621Z,96745.00
2024-02-19T06:18:46.967Z,96746.00
2024-02-19T06:19:46.794Z,96746.00
2024-02-19T06:20:46.806Z,96745.00
2024-02-19T06:21:46.898Z,96749.00
2024-02-19T06:22:46.949Z,96750.00
2024-02-19T06:23:47.025Z,96750.00
2024-02-19T06:24:47.138Z,96752.00
2024-02-19T06:25:47.161Z,96758.00
2024-02-19T06:26:47.219Z,96760.00
2024-02-19T06:27:47.306Z,96762.00
2024-02-19T06:28:47.355Z,96763.00
2024-02-19T06:29:47.457Z,96762.00
2024-02-19T06:30:47.561Z,96764.00
2024-02-19T06:31:47.593Z,96764.00
2024-02-19T06:32:47.641Z,96767.00
2024-02-19T06:33:47.830Z,96766.00
2024-02-19T06:34:47.926Z,96770.00
2024-02-19T06:35:47.850Z,96771.00
2024-02-19T06:36:47.990Z,96773.00
2024-02-19T06:37:47.974Z,96773.00
2024-02-19T06:38:48.019Z,96772.00
2024-02-19T06:39:48.110Z,96774.00
2024-02-19T06:40:48.148Z,96772.00
2024-02-19T06:41:48.229Z,96769.00
2024-02-19T06:42:49.215Z,96769.00
2024-02-19T06:43:48.374Z,96767.00
2024-02-19T06:44:48.427Z,96763.00
2024-02-19T06:45:48.535Z,96760.00
2024-02-19T06:46:48.574Z,96755.00
2024-02-19T06:47:48.706Z,96753.00
2024-02-19T06:48:50.724Z,96752.00
2024-02-19T06:49:48.874Z,96747.00
2024-02-19T06:50:48.815Z,96748.00
2024-02-19T06:51:48.902Z,96747.00
2024-02-19T06:52:48.872Z,96746.00
2024-02-19T06:53:48.948Z,96747.00
2024-02-19T06:54:49.036Z,96748.00
2024-02-19T06:55:49.057Z,96748.00
2024-02-19T06:56:49.129Z,96749.00
2024-02-19T06:57:49.260Z,96750.00
2024-02-19T06:58:49.254Z,96748.00
2024-02-19T06:59:49.359Z,96749.00
2024-02-19T07:00:49.471Z,96751.00
2024-02-19T07:01:49.536Z,96756.00
2024-02-19T07:02:49.581Z,96757.00
2024-02-19T07:03:49.773Z,96760.00
2024-02-19T07:04:49.677Z,96765.00
2024-02-19T07:05:49.774Z,96769.00
2024-02-19T07:06:49.815Z,96772.00
2024-02-19T07:07:49.832Z,96776.00
2024-02-19T07:08:49.884Z,96776.00
2024-02-19T07:09:49.902Z,96779.00
2024-02-19T07:10:49.943Z,96776.00
2024-02-19T07:11:50.054Z,96780.00
2024-02-19T07:12:50.003Z,96779.00
2024-02-19T07:13:50.102Z,96779.00
2024-02-19T07:14:50.070Z,96783.00
2024-02-19T07:15:50.121Z,96780.00
2024-02-19T07:16:50.128Z,96783.00
2024-02-19T07:17:50.243Z,96784.00
2024-02-19T07:18:50.310Z,96779.00
2024-02-19T07:19:50.295Z,96781.00
2024-02-19T07:20:50.240Z,96780.00
2024-02-19T07:21:50.292Z,96780.00
2024-02-19T07:22:50.273Z,96779.00
2024-02-19T07:23:50.292Z,96781.00
2024-02-19T07:24:50.976Z,96781.00
2024-02-19T07:25:51.662Z,96784.00
2024-02-19T07:26:50.308Z,96783.00
2024-02-19T07:27:50.417Z,96785.00
2024-02-19T07:28:50.337Z,96786.00
2024-02-19T07:29:50.328Z,96785.00
2024-02-19T07:30:50.360Z,96785.00
2024-02-19T07:31:50.329Z,96781.00
2024-02-19T07:32:50.378Z,96783.00
2024-02-19T07:33:50.439Z,96781.00
2024-02-19T07:34:50.371Z,96777.00
2024-02-19T07:35:50.427Z,96779.00
2024-02-19T07:36:50.488Z,96778.00
2024-02-19T07:37:50.320Z,96778.00
2024-02-19T07:38:50.334Z,96779.00
2024-02-19T07:39:50.836Z,96782.00
2024-02-19T07:40:50.338Z,96786.00
2024-02-19T07:41:50.318Z,96788.00
2024-02-19T07:42:50.400Z,96789.00
2024-02-19T07:43:50.337Z,96789.00
2024-02-19T07:44:50.353Z,96792.00
2024-02-19T07:45:50.353Z,96793.00
2024-02-19T07:46:50.337Z,96796.00
2024-02-19T07:47:50.409Z,96796.00
2024-02-19T07:48:50.467Z,96801.00
2024-02-19T07:49:50.380Z,96800.00
2024-02-19T07:50:50.338Z,96800.00
2024-02-19T07:51:50.364Z,96803.00
2024-02-19T07:52:50.325Z,96805.00
2024-02-19T07:53:50.329Z,96807.00
2024-02-19T07:54:50.405Z,96807.00
2024-02-19T07:55:50.415Z,96805.00
2024-02-19T07:56:50.319Z,96807.00
2024-02-19T07:57:50.380Z,96808.00
2024-02-19T07:58:50.365Z,96802.00
2024-02-19T07:59:50.327Z,96804.00
2024-02-19T08:00:50.371Z,96804.00
2024-02-19T08:01:50.495Z,96804.00
2024-02-19T08:02:50.321Z,96805.00
2024-02-19T08:03:50.416Z,96807.00
2024-02-19T08:04:50.494Z,96807.00
2024-02-19T08:05:50.361Z,96810.00
2024-02-19T08:06:50.449Z,96809.00
2024-02-19T08:07:50.426Z,96812.00
2024-02-19T08:08:50.333Z,96812.00
2024-02-19T08:09:50.370Z,96813.00
2024-02-19T08:10:50.320Z,96814.00
2024-02-19T08:11:50.436Z,96814.00
2024-02-19T08:12:50.479Z,96815.00
2024-02-19T08:13:50.407Z,96816.00
2024-02-19T08:14:50.320Z,96816.00
2024-02-19T08:15:50.348Z,96817.00
2024-02-19T08:16:50.368Z,96816.00
2024-02-19T08:17:50.453Z,96817.00
2024-02-19T08:18:50.442Z,96820.00
2024-02-19T08:19:50.360Z,96819.00
2024-02-19T08:20:50.340Z,96821.00
2024-02-19T08:21:50.492Z,96824.00
2024-02-19T08:22:51.283Z,96824.00
2024-02-19T08:23:50.345Z,96824.00
2024-02-19T08:24:50.400Z,96822.00
2024-02-19T08:25:50.346Z,96821.00
2024-02-19T08:26:50.338Z,96821.00
2024-02-19T08:27:51.928Z,96823.00
2024-02-19T08:28:50.337Z,96823.00
2024-02-19T08:29:50.346Z,96824.00
2024-02-19T08:30:50.387Z,96822.00
2024-02-19T08:31:50.363Z,96818.00
2024-02-19T08:32:50.436Z,96820.00
2024-02-19T08:33:50.518Z,96822.00
2024-02-19T08:34:50.447Z,96819.00
2024-02-19T08:35:50.383Z,96820.00
2024-02-19T08:36:50.382Z,96819.00
2024-02-19T08:37:50.366Z,96822.00
2024-02-19T08:38:50.402Z,96827.00
2024-02-19T08:39:50.449Z,96827.00
2024-02-19T08:40:50.362Z,96828.00
2024-02-19T08:41:50.350Z,96830.00
2024-02-19T08:42:50.367Z,96831.00
2024-02-19T08:43:50.359Z,96834.00
2024-02-19T08:44:50.371Z,96836.00
2024-02-19T08:45:50.422Z,96837.00
2024-02-19T08:46:50.381Z,96828.00
2024-02-19T08:47:50.382Z,96837.00
2024-02-19T08:48:50.452Z,96839.00
2024-02-19T08:49:50.488Z,96841.00
2024-02-19T08:50:50.361Z,96841.00
2024-02-19T08:51:50.380Z,96845.00
2024-02-19T08:52:50.378Z,96846.00
2024-02-19T08:53:56.710Z,96842.00
2024-02-19T08:54:51.393Z,96836.00
2024-02-19T08:55:50.438Z,96831.00
2024-02-19T08:56:50.378Z,96828.00
2024-02-19T08:57:50.428Z,96829.00
2024-02-19T08:58:50.423Z,96827.00
2024-02-19T08:59:50.367Z,96823.00
2024-02-19T09:00:50.491Z,96818.00
2024-02-19T09:01:50.473Z,96816.00
2024-02-19T09:02:50.392Z,96812.00
2024-02-19T09:03:50.498Z,96812.00
2024-02-19T09:04:50.541Z,96814.00
2024-02-19T09:05:50.403Z,96817.00
2024-02-19T09:06:50.469Z,96820.00
2024-02-19T09:07:50.505Z,96820.00
2024-02-19T09:08:50.438Z,96823.00
2024-02-19T09:09:50.539Z,96822.00
2024-02-19T09:10:50.504Z,96821.00
2024-02-19T09:11:50.618Z,96824.00
2024-02-19T09:12:50.616Z,96827.00
2024-02-19T09:13:50.651Z,96831.00
2024-02-19T09:14:50.732Z,96834.00
2024-02-19T09:15:50.836Z,96836.00
2024-02-19T09:16:50.852Z,96836.00
2024-02-19T09:17:50.880Z,96836.00
2024-02-19T09:18:50.981Z,96837.00
2024-02-19T09:19:50.947Z,96831.00
2024-02-19T09:20:58.254Z,96832.00
2024-02-19T09:21:58.243Z,96829.00
2024-02-19T09:22:58.238Z,96828.00
2024-02-19T09:23:58.234Z,96828.00
2024-02-19T09:24:58.270Z,96830.00
2024-02-19T09:25:58.248Z,96827.00
2024-02-19T09:26:58.238Z,96832.00
2024-02-19T09:27:58.322Z,96834.00
2024-02-19T09:28:58.241Z,96836.00
2024-02-19T09:29:58.248Z,96841.00
2024-02-19T09:30:58.270Z,96842.00
2024-02-19T09:31:58.246Z,96842.00
2024-02-19T09:32:58.314Z,96843.00
2024-02-19T09:33:58.540Z,96845.00
2024-02-19T09:34:58.318Z,96848.00
2024-02-19T09:35:58.246Z,96848.00
2024-02-19T09:36:58.325Z,96849.00
2024-02-19T09:37:58.260Z,96848.00
2024-02-19T09:38:58.274Z,96843.00
2024-02-19T09:39:58.314Z,96843.00
2024-02-19T09:40:58.273Z,96844.00
2024-02-19T09:41:58.272Z,96845.00
2024-02-19T09:42:58.281Z,96849.00
2024-02-19T09:43:58.305Z,96850.00
2024-02-19T09:44:58.256Z,96852.00
2024-02-19T09:45:58.323Z,96851.00
2024-02-19T09:46:58.285Z,96856.00
2024-02-19T09:47:58.447Z,96855.00
2024-02-19T09:48:58.446Z,96857.00
2024-02-19T09:49:58.324Z,96853.00
2024-02-19T09:50:58.278Z,96852.00
2024-02-19T09:51:58.348Z,96851.00
2024-02-19T09:52:58.280Z,96850.00
2024-02-19T09:53:58.288Z,96846.00
2024-02-19T09:54:58.376Z,96848.00
2024-02-19T09:55:58.285Z,96848.00
2024-02-19T09:56:58.311Z,96849.00
2024-02-19T09:57:58.304Z,96854.00
2024-02-19T09:58:58.287Z,96856.00
2024-02-19T09:59:58.296Z,96857.00
2024-02-19T10:00:58.334Z,96858.00
2024-02-19T10:01:58.342Z,96857.00
2024-02-19T10:02:58.309Z,96854.00
2024-02-19T10:03:58.411Z,96854.00
2024-02-19T10:04:59.400Z,96858.00
2024-02-19T10:05:58.467Z,96856.00
2024-02-19T10:06:58.621Z,96857.00
2024-02-19T10:07:58.657Z,96859.00
2024-02-19T10:08:58.558Z,96859.00
2024-02-19T10:09:58.666Z,96860.00
2024-02-19T10:10:58.616Z,96860.00
2024-02-19T10:11:58.658Z,96858.00
2024-02-19T10:12:58.663Z,96861.00
2024-02-19T10:13:58.670Z,96865.00
2024-02-19T10:14:58.697Z,96865.00
2024-02-19T10:16:00.421Z,96868.00
2024-02-19T10:16:58.743Z,96868.00
2024-02-19T10:17:58.808Z,96864.00
2024-02-19T10:18:58.964Z,96865.00
2024-02-19T10:19:58.966Z,96865.00
2024-02-19T10:20:58.977Z,96864.00
2024-02-19T10:21:59.086Z,96865.00
2024-02-19T10:22:59.115Z,96864.00
2024-02-19T10:23:59.201Z,96863.00
2024-02-19T10:24:59.248Z,96865.00
2024-02-19T10:25:59.288Z,96863.00
2024-02-19T10:26:59.335Z,96863.00
2024-02-19T10:27:59.403Z,96862.00
2024-02-19T10:28:59.409Z,96860.00
2024-02-19T10:29:59.456Z,96858.00
2024-02-19T10:30:59.520Z,96858.00
2024-02-19T10:31:59.543Z,96856.00
2024-02-19T10:32:59.632Z,96858.00
2024-02-19T10:33:59.816Z,96860.00
2024-02-19T10:34:59.710Z,96860.00
2024-02-19T10:35:59.722Z,96862.00
2024-02-19T10:36:59.815Z,96861.00
2024-02-19T10:37:59.754Z,96863.00
2024-02-19T10:38:59.785Z,96865.00
2024-02-19T10:39:59.871Z,96865.00
2024-02-19T10:40:59.847Z,96864.00
2024-02-19T10:41:59.897Z,96865.00
2024-02-19T10:42:59.944Z,96866.00
2024-02-19T10:43:59.959Z,96866.00
2024-02-19T10:44:59.960Z,96868.00
2024-02-19T10:46:00.003Z,96866.00
2024-02-19T10:47:00.943Z,96868.00
2024-02-19T10:48:00.188Z,96865.00
2024-02-19T10:49:00.224Z,96864.00
2024-02-19T10:50:00.966Z,96868.00
2024-02-19T10:51:00.112Z,96868.00
2024-02-19T10:52:00.207Z,96866.00
2024-02-19T10:53:00.200Z,96869.00
2024-02-19T10:54:00.272Z,96866.00
2024-02-19T10:55:09.585Z,96863.00
2024-02-19T10:56:04.418Z,96862.00
2024-02-19T10:57:00.348Z,96859.00
2024-02-19T10:58:00.395Z,96860.00
2024-02-19T10:59:00.348Z,96857.00
2024-02-19T11:00:00.349Z,96853.00
2024-02-19T11:01:00.385Z,96853.00
2024-02-19T11:02:00.403Z,96850.00
2024-02-19T11:03:00.345Z,96850.00
2024-02-19T11:04:00.389Z,96846.00
2024-02-19T11:05:00.472Z,96843.00
2024-02-19T11:06:00.672Z,96838.00
2024-02-19T11:07:00.624Z,96836.00
2024-02-19T11:08:00.662Z,96836.00
2024-02-19T11:09:00.714Z,96835.00
2024-02-19T11:10:00.903Z,96835.00
2024-02-19T11:11:00.930Z,96835.00
2024-02-19T11:12:01.179Z,96833.00
2024-02-19T11:13:01.974Z,96832.00
2024-02-19T11:14:01.064Z,96832.00
2024-02-19T11:15:01.133Z,96834.00
2024-02-19T11:16:01.230Z,96828.00
2024-02-19T11:17:01.262Z,96833.00
2024-02-19T11:18:01.359Z,96832.00
2024-02-19T11:19:01.553Z,96834.00
2024-02-19T11:20:01.525Z,96834.00
2024-02-19T11:21:01.422Z,96833.00
2024-02-19T11:22:01.535Z,96831.00
2024-02-19T11:23:01.503Z,96830.00
2024-02-19T11:24:01.524Z,96831.00
2024-02-19T11:25:01.574Z,96828.00
2024-02-19T11:26:01.546Z,96826.00
2024-02-19T11:27:01.567Z,96825.00
2024-02-19T11:28:01.663Z,96826.00
2024-02-19T11:29:01.612Z,96825.00
2024-02-19T11:30:01.703Z,96827.00
2024-02-19T11:31:01.686Z,96824.00
2024-02-19T11:32:01.682Z,96825.00
2024-02-19T11:33:01.748Z,96824.00
2024-02-19T11:34:01.703Z,96822.00
2024-02-19T11:35:01.721Z,96824.00
2024-02-19T11:36:01.675Z,96824.00
2024-02-19T11:37:01.747Z,96824.00
2024-02-19T11:38:01.711Z,96827.00
2024-02-19T11:39:01.755Z,96820.00
2024-02-19T11:40:01.780Z,96821.00
2024-02-19T11:41:01.757Z,96817.00
2024-02-19T11:42:01.776Z,96814.00
2024-02-19T11:43:01.855Z,96812.00
2024-02-19T11:44:01.827Z,96808.00
2024-02-19T11:45:01.870Z,96808.00